Terminal Aerodrome Forecast
Issued by NWS Melbourne, FL

Current Version | Previous Version | Text Only | Print | Product List | Glossary On
Versions: 1 2 3 4 5 6 7 8 9 10 11 12 13 14 15 16 17 18 19 20 21 22 23 24 25 26 27 28 29 30 31 32 33 34
000
FTUS42 KMLB 270730 AAS
TAFMLB
TAF AMD
KMLB 270730Z 2708/2806 29011KT P6SM VCSH SCT010 SCT020 BKN040
      TEMPO 2708/2709 -RA BKN015
     FM271000 32011KT P6SM SCT030 OVC120
     FM271400 32014G20KT P6SM SKC
     FM280200 30004KT P6SM SKC=

USA.gov is the U.S. government's official web portal to all federal, state and local government web resources and services.